• Join FlightAware (Why Join?)
  • Login
  • US Flag 
04:50PM EDT


 

Airport Tracker/Info


-or-


 

Live Flight TrackerFlight Track Log ✈ SWA1046 ✈ 07-May-2013 ✈ KMCO - KSTL

Flight Track Log - Related Links

Times and Time Zones

All times are in EDT time to prevent confusion due to time zone crossing. See the SWA1046 flight status page for this flight to view local times or setup timezone preferences in your user account.

Time Position Orientation Groundspeed Altitude Reporting Facility
EDT Latitude Longitude Course Direction KTS MPH feet Rate Location/Type
11:17AM 28.3833 -81.3000 180° South 163 188 1,600  Level Orlando TRACON
11:18AM 28.3333 -81.3500 221° Southwest 211 243 4,200 2,880 Climbing Orlando TRACON
11:20AM 28.3339 -81.4683 270° West 254 292 9,900 2,700 Climbing Jacksonville Center
11:21AM 28.3497 -81.5575 281° West 270 311 12,100 2,820 Climbing Jacksonville Center
11:22AM 28.3694 -81.6611 282° West 309 356 15,600 3,120 Climbing Jacksonville Center
11:23AM 28.3850 -81.7672 279° West 338 389 18,400 2,880 Climbing Jacksonville Center
11:24AM 28.4067 -81.8778 283° West 353 406 21,400 2,700 Climbing Jacksonville Center
11:25AM 28.4328 -81.9956 284° West 366 421 23,800 2,280 Climbing Jacksonville Center
11:26AM 28.4583 -82.1086 284° West 372 428 26,000 2,100 Climbing Jacksonville Center
11:27AM 28.4800 -82.2314 281° West 377 434 28,100 2,040 Climbing Jacksonville Center
11:28AM 28.5078 -82.3492 285° West 383 441 30,100 1,920 Climbing Jacksonville Center
11:29AM 28.5353 -82.4672 285° West 390 449 32,000 1,200 Climbing Jacksonville Center
11:30AM 28.5897 -82.5733 300° West 390 449 32,600 1,140 Climbing Jacksonville Center
11:31AM 28.6861 -82.6536 324° Northwest 397 457 34,300 1,560 Climbing Jacksonville Center
11:32AM 28.7800 -82.7267 326° Northwest 402 463 35,800 1,380 Climbing Jacksonville Center
11:33AM 28.8783 -82.8025 326° Northwest 419 482 37,100 1,080 Climbing Jacksonville Center
11:34AM 28.9742 -82.8806 325° Northwest 424 488 38,000 420 Climbing Jacksonville Center
11:35AM 29.0722 -82.9592 325° Northwest 429 494 38,000  Level Jacksonville Center
11:36AM 29.1661 -83.0353 325° Northwest 429 494 38,000  Level Jacksonville Center
11:37AM 29.2642 -83.1139 325° Northwest 429 494 38,000  Level Jacksonville Center
11:38AM 29.3558 -83.1903 324° Northwest 429 494 38,000  Level Jacksonville Center
11:39AM 29.4539 -83.2669 326° Northwest 429 494 38,000  Level Jacksonville Center
11:40AM 29.5475 -83.3461 324° Northwest 429 494 38,000  Level Jacksonville Center
11:41AM 29.6411 -83.4206 325° Northwest 429 494 38,000  Level Jacksonville Center
11:42AM 29.7347 -83.5000 324° Northwest 429 494 38,000  Level Jacksonville Center
11:43AM 29.8303 -83.5772 325° Northwest 429 494 38,000  Level Jacksonville Center
11:44AM 29.9303 -83.6594 325° Northwest 424 488 38,000  Level Jacksonville Center
11:45AM 30.0258 -83.7369 325° Northwest 424 488 38,000  Level Jacksonville Center
11:46AM 30.1169 -83.8122 324° Northwest 419 482 38,000  Level Jacksonville Center
11:47AM 30.2125 -83.8900 325° Northwest 419 482 38,000  Level Jacksonville Center
11:48AM 30.3078 -83.9706 324° Northwest 419 482 38,000  Level Jacksonville Center
11:49AM 30.4033 -84.0486 325° Northwest 419 482 38,000  Level Jacksonville Center
11:50AM 30.4986 -84.1269 325° Northwest 424 488 38,000  Level Jacksonville Center
11:51AM 30.5875 -84.2078 322° Northwest 416 479 38,000  Level Jacksonville Center
11:52AM 30.6828 -84.2864 325° Northwest 411 473 38,000  Level Jacksonville Center
11:53AM 30.7778 -84.3650 325° Northwest 411 473 38,000  Level Jacksonville Center
11:54AM 30.8708 -84.4439 324° Northwest 411 473 38,000  Level Jacksonville Center
11:55AM 30.9639 -84.5256 323° Northwest 406 467 38,000  Level Jacksonville Center
11:56AM 31.0567 -84.6022 325° Northwest 406 467 38,000  Level Jacksonville Center
11:57AM 31.1497 -84.6817 324° Northwest 406 467 38,000  Level Jacksonville Center
11:59AM 31.3558 -84.8583 324° Northwest 412 474 38,000  Level Atlanta Center
12:00PM 31.4469 -84.9369 324° Northwest 406 467 38,000  Level Atlanta Center
12:01PM 31.5403 -85.0158 324° Northwest 406 467 38,000  Level Atlanta Center
12:02PM 31.6336 -85.0950 324° Northwest 406 467 38,000  Level Atlanta Center
12:03PM 31.7206 -85.1692 324° Northwest 401 461 38,000  Level Atlanta Center
12:04PM 31.8117 -85.2461 324° Northwest 407 468 38,000  Level Atlanta Center
12:05PM 31.9047 -85.3281 323° Northwest 407 468 38,000  Level Atlanta Center
12:06PM 31.9936 -85.4028 325° Northwest 407 468 38,000  Level Atlanta Center
12:07PM 32.0825 -85.4803 324° Northwest 407 468 38,000  Level Atlanta Center
12:08PM 32.1714 -85.5603 323° Northwest 407 468 38,000 -180 Level Atlanta Center
12:09PM 32.2706 -85.6431 325° Northwest 406 467 37,700 -540 Descending Atlanta Center
12:10PM 32.3614 -85.7233 323° Northwest 406 467 37,000 -360 Descending Atlanta Center
12:11PM 32.4417 -85.7986 322° Northwest 406 467 37,000  Level Atlanta Center
12:12PM 32.5242 -85.8667 325° Northwest 411 473 37,000 -540 Level Atlanta Center
12:13PM 32.6311 -85.9628 323° Northwest 411 473 36,000 -540 Descending Atlanta Center
12:14PM 32.7178 -86.0411 323° Northwest 400 460 36,000  Level Atlanta Center
12:15PM 32.8061 -86.1222 322° Northwest 400 460 36,000  Level Atlanta Center
12:16PM 32.8967 -86.1986 325° Northwest 400 460 36,000 420 Level Atlanta Center
12:17PM 32.9869 -86.2825 322° Northwest 406 467 36,900 1,140 Climbing Atlanta Center
12:18PM 33.0753 -86.3592 324° Northwest 406 467 38,300 1,020 Climbing Atlanta Center
12:19PM 33.1633 -86.4408 322° Northwest 401 461 39,000 600 Climbing Atlanta Center
12:20PM 33.2539 -86.5178 325° Northwest 406 467 39,600 480 Climbing Atlanta Center
12:21PM 33.3336 -86.5947 321° Northwest 406 467 40,000 180 Climbing Atlanta Center
12:22PM 33.4236 -86.6769 323° Northwest 406 467 40,000  Level Atlanta Center
12:23PM 33.5158 -86.7597 323° Northwest 406 467 40,000  Level Atlanta Center
12:24PM 33.6078 -86.8422 323° Northwest 406 467 40,000  Level Atlanta Center
12:25PM 33.7019 -86.9228 325° Northwest 406 467 40,000  Level Atlanta Center
12:27PM 33.8853 -87.0769 325° Northwest 425 489 40,000  Level Memphis Center
12:28PM 33.9789 -87.1458 329° Northwest 419 482 40,000  Level Memphis Center
12:29PM 34.0683 -87.2203 325° Northwest 419 482 40,000  Level Memphis Center
12:30PM 34.1767 -87.2967 330° Northwest 419 482 40,000  Level Memphis Center
12:31PM 34.2744 -87.3736 327° Northwest 420 483 40,000  Level Memphis Center
12:32PM 34.3681 -87.4508 326° Northwest 420 483 40,000  Level Memphis Center
12:33PM 34.4681 -87.5306 327° Northwest 420 483 40,000  Level Memphis Center
12:34PM 34.5658 -87.6081 327° Northwest 417 480 40,000  Level Memphis Center
12:35PM 34.6636 -87.6883 326° Northwest 422 486 40,000  Level Memphis Center
12:36PM 34.7611 -87.7661 327° Northwest 427 491 40,000  Level Memphis Center
12:37PM 34.8631 -87.8464 327° Northwest 432 497 40,000  Level Memphis Center
12:38PM 34.9564 -87.9247 325° Northwest 427 491 40,000  Level Memphis Center
12:39PM 35.0539 -88.0031 327° Northwest 427 491 40,000  Level Memphis Center
12:40PM 35.1492 -88.0867 324° Northwest 427 491 40,000  Level Memphis Center
12:41PM 35.2467 -88.1656 327° Northwest 427 491 40,000  Level Memphis Center
12:42PM 35.3419 -88.2444 326° Northwest 427 491 40,000  Level Memphis Center
12:43PM 35.4264 -88.3111 327° Northwest 422 486 40,000  Level Memphis Center
12:44PM 35.5319 -88.3953 327° Northwest 422 486 40,000  Level Memphis Center
12:45PM 35.6292 -88.4744 327° Northwest 416 479 40,000  Level Memphis Center
12:46PM 35.7264 -88.5567 326° Northwest 416 479 40,000  Level Memphis Center
12:47PM 35.8236 -88.6417 325° Northwest 423 487 40,000  Level Memphis Center
12:48PM 35.9394 -88.7392 326° Northwest 428 493 40,000  Level Memphis Center
12:49PM 36.0364 -88.8194 326° Northwest 428 493 40,000 -540 Level Memphis Center
12:50PM 36.1333 -88.8997 326° Northwest 428 493 39,000 -1,020 Descending Memphis Center
12:51PM 36.2281 -88.9806 325° Northwest 428 493 38,000 -960 Descending Memphis Center
12:52PM 36.3183 -89.0458 330° Northwest 428 493 37,100 -960 Descending Memphis Center
12:53PM 36.4275 -89.1086 335° Northwest 428 493 36,100 -960 Descending Memphis Center
12:54PM 36.5386 -89.1714 336° Northwest 428 493 35,200 -960 Descending Memphis Center
12:55PM 36.6433 -89.2344 334° Northwest 428 493 34,200 -960 Descending Memphis Center
12:56PM 36.7503 -89.2978 335° Northwest 423 487 33,300 -960 Descending Memphis Center
12:57PM 36.8592 -89.3611 335° Northwest 428 493 32,300 -1,020 Descending Memphis Center
12:58PM 36.9658 -89.4247 335° Northwest 428 493 31,300 -1,500 Descending Memphis Center
12:59PM 37.0706 -89.4858 335° Northwest 428 493 29,400 -1,680 Descending Memphis Center
01:01PM 37.2889 -89.6078 336° Northwest 400 460 26,000 -1,080 Descending Kansas City Center
01:02PM 37.3889 -89.6611 337° Northwest 393 452 26,000  Level Kansas City Center
01:04PM 37.4894 -89.7156 337° Northwest 393 452 26,000 -900 Level Kansas City Center
01:05PM 37.5903 -89.7708 337° Northwest 394 453 24,200 -2,160 Descending Kansas City Center
01:06PM 37.7047 -89.8358 336° Northwest 385 443 21,600 -2,280 Descending Kansas City Center
01:07PM 37.7969 -89.8867 336° Northwest 373 429 19,600 -1,920 Descending Kansas City Center
01:08PM 37.8961 -89.9394 337° Northwest 352 405 17,700 -2,040 Descending Kansas City Center
01:09PM 37.9828 -89.9850 337° Northwest 339 390 15,400 -2,160 Descending Kansas City Center
01:10PM 38.0742 -90.0372 336° Northwest 334 384 13,300 -1,980 Descending Kansas City Center
01:11PM 38.1583 -90.0728 342° North 322 371 11,400 -1,500 Descending Kansas City Center
01:12PM 38.2436 -90.0811 356° North 307 353 10,200 -840 Descending Kansas City Center
01:13PM 38.3219 -90.0897 355° North 287 330 9,700 -1,020 Descending Kansas City Center
01:14PM 38.3950 -90.0978 355° North 266 306 8,100 -1,500 Descending Kansas City Center
01:15PM 38.4689 -90.1083 354° North 266 306 6,700 -1,560 Descending Kansas City Center
01:16PM 38.5394 -90.1319 345° North 267 307 4,900 -1,440 Descending Kansas City Center
01:17PM 38.6203 -90.1650 342° North 257 296 3,800 -840 Descending Kansas City Center
01:18PM 38.6711 -90.2028 330° Northwest 223 257 3,200 -720 Descending Kansas City Center
01:19PM 38.6972 -90.2564 302° West 179 206 2,400 -960 Descending Kansas City Center
01:20PM 38.7192 -90.3003 303° West 151 174 1,300 -900 Descending Kansas City Center
01:21PM 38.7403 -90.3425 303° West 146 168 600 -720 Descending Kansas City Center